createdAt,value
2023-05-17T00:21:50.869Z,9.762610
2023-05-17T00:22:50.848Z,9.762540
2023-05-17T00:23:50.907Z,9.762593
2023-05-17T00:24:50.830Z,9.762565
2023-05-17T00:25:50.816Z,9.762559
2023-05-17T00:26:50.814Z,9.762486
2023-05-17T00:27:50.885Z,9.762640
2023-05-17T00:28:50.789Z,9.762836
2023-05-17T00:29:50.778Z,9.762793
2023-05-17T00:30:50.772Z,9.762685
2023-05-17T00:31:50.750Z,9.762705
2023-05-17T00:32:50.766Z,9.762673
2023-05-17T00:33:50.726Z,9.762630
2023-05-17T00:34:50.750Z,9.762702
2023-05-17T00:35:50.721Z,9.762724
2023-05-17T00:36:50.703Z,9.762710
2023-05-17T00:37:50.704Z,9.761523
2023-05-17T00:38:50.685Z,9.761874
2023-05-17T00:39:50.813Z,9.762402
2023-05-17T00:40:50.678Z,9.762482
2023-05-17T00:41:50.658Z,9.762626
2023-05-17T00:42:50.646Z,9.762619
2023-05-17T00:43:50.645Z,9.762607
2023-05-17T00:44:50.652Z,9.762666
2023-05-17T00:45:50.628Z,9.762753
2023-05-17T00:46:50.612Z,9.762699
2023-05-17T00:47:50.656Z,9.762699
2023-05-17T00:48:50.660Z,9.762709
2023-05-17T00:49:50.574Z,9.762706
2023-05-17T00:50:50.564Z,9.762768
2023-05-17T00:51:50.559Z,9.762669
2023-05-17T00:52:50.542Z,9.762706
2023-05-17T00:53:50.552Z,9.762835
2023-05-17T00:54:50.532Z,9.762845
2023-05-17T00:55:50.615Z,9.762579
2023-05-17T00:56:50.507Z,9.762908
2023-05-17T00:57:50.506Z,9.762793
2023-05-17T00:58:50.572Z,9.762683
2023-05-17T00:59:50.484Z,9.762702
2023-05-17T01:00:50.483Z,9.762691
2023-05-17T01:01:50.459Z,9.762829
2023-05-17T01:02:50.508Z,9.762802
2023-05-17T01:03:50.608Z,9.762739
2023-05-17T01:04:50.482Z,9.762626
2023-05-17T01:05:50.420Z,9.762777
2023-05-17T01:06:50.420Z,9.762807
2023-05-17T01:07:50.405Z,9.762342
2023-05-17T01:08:50.399Z,9.762668
2023-05-17T01:09:50.389Z,9.762761
2023-05-17T01:10:50.378Z,9.762712
2023-05-17T01:11:50.510Z,9.762740
2023-05-17T01:12:50.366Z,9.762942
2023-05-17T01:13:50.367Z,9.762815
2023-05-17T01:14:50.329Z,9.762820
2023-05-17T01:15:50.318Z,9.762637
2023-05-17T01:16:50.332Z,9.762855
2023-05-17T01:17:50.440Z,9.762883
2023-05-17T01:18:50.412Z,9.762808
2023-05-17T01:19:50.435Z,9.762810
2023-05-17T01:20:50.265Z,9.762746
2023-05-17T01:21:50.273Z,9.763056
2023-05-17T01:22:50.264Z,9.762701
2023-05-17T01:23:50.251Z,9.763491
2023-05-17T01:24:50.224Z,9.762875
2023-05-17T01:25:51.251Z,9.762850
2023-05-17T01:26:50.224Z,9.762614
2023-05-17T01:27:50.318Z,9.762733
2023-05-17T01:28:50.197Z,9.762734
2023-05-17T01:29:50.183Z,9.762856
2023-05-17T01:30:50.201Z,9.762881
2023-05-17T01:31:50.168Z,9.762892
2023-05-17T01:32:50.187Z,9.762809
2023-05-17T01:33:50.225Z,9.762678
2023-05-17T01:34:50.133Z,9.762624
2023-05-17T01:35:50.130Z,9.762608
2023-05-17T01:36:50.113Z,9.762626
2023-05-17T01:37:50.098Z,9.762617
2023-05-17T01:38:50.090Z,9.762936
2023-05-17T01:39:50.091Z,9.762790
2023-05-17T01:40:50.079Z,9.762895
2023-05-17T01:41:50.069Z,9.762895
2023-05-17T01:42:50.056Z,9.762987
2023-05-17T01:43:50.124Z,9.762992
2023-05-17T01:44:50.036Z,9.762883
2023-05-17T01:45:50.011Z,9.762514
2023-05-17T01:46:49.993Z,9.762741
2023-05-17T01:47:50.019Z,9.762383
2023-05-17T01:48:50.005Z,9.762791
2023-05-17T01:49:49.990Z,9.762674
2023-05-17T01:50:49.953Z,9.762439
2023-05-17T01:51:49.960Z,9.763095
2023-05-17T01:52:49.952Z,9.762797
2023-05-17T01:53:49.945Z,9.762743
2023-05-17T01:54:49.934Z,9.762631
2023-05-17T01:55:49.939Z,9.762442
2023-05-17T01:56:49.919Z,9.763350
2023-05-17T01:57:49.890Z,9.763677
2023-05-17T01:58:49.887Z,9.762711
2023-05-17T01:59:50.027Z,9.762674
2023-05-17T02:00:49.866Z,9.762478
2023-05-17T02:01:49.852Z,9.762453
2023-05-17T02:02:49.854Z,9.762453
2023-05-17T02:03:49.905Z,9.762453
2023-05-17T02:04:49.855Z,9.762453
2023-05-17T02:05:49.810Z,9.762453
2023-05-17T02:06:49.811Z,9.762691
2023-05-17T02:07:49.797Z,9.762858
2023-05-17T02:08:49.793Z,9.762594
2023-05-17T02:09:49.771Z,9.762873
2023-05-17T02:10:49.762Z,9.762829
2023-05-17T02:11:49.752Z,9.762687
2023-05-17T02:12:49.747Z,9.762841
2023-05-17T02:13:49.728Z,9.762780
2023-05-17T02:14:49.718Z,9.762596
2023-05-17T02:15:49.801Z,9.762747
2023-05-17T02:16:49.701Z,9.762721
2023-05-17T02:17:49.847Z,9.762646
2023-05-17T02:18:49.845Z,9.762737
2023-05-17T02:19:49.674Z,9.762630
2023-05-17T02:20:49.667Z,9.762749
2023-05-17T02:21:49.658Z,9.763031
2023-05-17T02:22:49.674Z,9.762274
2023-05-17T02:23:49.633Z,9.763126
2023-05-17T02:24:49.645Z,9.762164
2023-05-17T02:25:49.611Z,9.762667
2023-05-17T02:26:49.625Z,9.762249
2023-05-17T02:27:49.614Z,9.761492
2023-05-17T02:28:49.587Z,9.761492
2023-05-17T02:29:49.578Z,9.761492
2023-05-17T02:30:49.578Z,9.763102
2023-05-17T02:31:49.628Z,9.763315
2023-05-17T02:32:49.650Z,9.763315
2023-05-17T02:33:49.600Z,9.763315
2023-05-17T02:34:49.532Z,9.763315
2023-05-17T02:35:49.533Z,9.763315
2023-05-17T02:36:49.518Z,9.763315
2023-05-17T02:37:49.507Z,9.763315
2023-05-17T02:38:49.494Z,9.763315
2023-05-17T02:39:49.489Z,9.763315
2023-05-17T02:40:49.506Z,9.763315
2023-05-17T02:41:49.482Z,9.763315
2023-05-17T02:42:49.455Z,9.763315
2023-05-17T02:43:49.443Z,9.763315
2023-05-17T02:44:49.439Z,9.763315
2023-05-17T02:45:49.436Z,9.763315
2023-05-17T02:46:49.439Z,9.763315
2023-05-17T02:47:49.526Z,9.763315
2023-05-17T02:48:49.391Z,9.763315
2023-05-17T02:49:49.394Z,9.763315
2023-05-17T02:50:49.385Z,9.763315
2023-05-17T02:51:49.369Z,9.763315
2023-05-17T02:52:49.355Z,9.763315
2023-05-17T02:53:49.345Z,9.763315
2023-05-17T02:54:49.342Z,9.763315
2023-05-17T02:55:49.332Z,9.763315
2023-05-17T02:56:49.312Z,9.763315
2023-05-17T02:57:49.306Z,9.763315
2023-05-17T02:58:49.302Z,9.763315
2023-05-17T02:59:49.298Z,9.763315
2023-05-17T03:00:49.284Z,9.763315
2023-05-17T03:01:49.267Z,9.763315
2023-05-17T03:02:49.346Z,9.763315
2023-05-17T03:03:49.630Z,9.762680
2023-05-17T03:04:49.269Z,9.762787
2023-05-17T03:05:49.221Z,9.762938
2023-05-17T03:06:49.229Z,9.762713
2023-05-17T03:07:49.210Z,9.762624
2023-05-17T03:08:49.215Z,9.762807
2023-05-17T03:09:49.197Z,9.762770
2023-05-17T03:10:49.211Z,9.762691
2023-05-17T03:11:50.177Z,9.762691
2023-05-17T03:12:49.160Z,9.762691
2023-05-17T03:13:49.168Z,9.762546
2023-05-17T03:14:49.152Z,9.762868
2023-05-17T03:15:49.123Z,9.762890
2023-05-17T03:16:49.129Z,9.762446
2023-05-17T03:17:49.152Z,9.762446
2023-05-17T03:18:49.253Z,9.762446
2023-05-17T03:19:49.312Z,9.762508
2023-05-17T03:20:49.075Z,9.762747
2023-05-17T03:21:49.075Z,9.762763
2023-05-17T03:22:49.070Z,9.762552
2023-05-17T03:23:49.063Z,9.763578
2023-05-17T03:24:49.042Z,9.764874
2023-05-17T03:25:49.026Z,9.764874
2023-05-17T03:26:49.030Z,9.764874
2023-05-17T03:27:49.089Z,9.764874
2023-05-17T03:28:49.011Z,9.764874
2023-05-17T03:29:49.006Z,9.764874
2023-05-17T03:30:48.987Z,9.764874
2023-05-17T03:31:48.967Z,9.764874
2023-05-17T03:32:49.043Z,9.764874
2023-05-17T03:33:49.046Z,9.764874
2023-05-17T03:34:48.947Z,9.762615
2023-05-17T03:35:49.051Z,9.762627
2023-05-17T03:36:48.924Z,9.762699
2023-05-17T03:37:48.931Z,9.762704
2023-05-17T03:38:48.893Z,9.762767
2023-05-17T03:39:48.894Z,9.762707
2023-05-17T03:40:48.879Z,9.762950
2023-05-17T03:41:48.885Z,9.762751
2023-05-17T03:42:48.870Z,9.762819
2023-05-17T03:43:49.861Z,9.762774
2023-05-17T03:44:48.863Z,9.762840
2023-05-17T03:45:48.838Z,9.762877
2023-05-17T03:46:48.845Z,9.762824
2023-05-17T03:47:48.863Z,9.762810
2023-05-17T03:48:48.881Z,9.762922
2023-05-17T03:49:48.797Z,9.762955
2023-05-17T03:50:48.804Z,9.762541
2023-05-17T03:51:48.800Z,9.761634
2023-05-17T03:52:48.784Z,9.761613
2023-05-17T03:53:48.772Z,9.762422
2023-05-17T03:54:48.751Z,9.762478
2023-05-17T03:55:48.806Z,9.762574
2023-05-17T03:56:48.788Z,9.762175
2023-05-17T03:57:48.755Z,9.762303
2023-05-17T03:58:48.806Z,9.762161
2023-05-17T03:59:48.704Z,9.762429
2023-05-17T04:00:48.732Z,9.762447
2023-05-17T04:01:48.675Z,9.762447
2023-05-17T04:02:49.691Z,9.762447
2023-05-17T04:03:48.723Z,9.762447
2023-05-17T04:04:48.694Z,9.762447
2023-05-17T04:05:48.667Z,9.762447
2023-05-17T04:06:48.642Z,9.762447
2023-05-17T04:07:48.715Z,9.762447
2023-05-17T04:08:48.625Z,9.762447
2023-05-17T04:09:48.608Z,9.762447
2023-05-17T04:10:48.609Z,9.762447
2023-05-17T04:11:48.600Z,9.762447
2023-05-17T04:12:48.578Z,9.762447
2023-05-17T04:13:48.576Z,9.762447
2023-05-17T04:14:48.562Z,9.762447
2023-05-17T04:15:48.581Z,9.762447
2023-05-17T04:16:48.552Z,9.762447
2023-05-17T04:17:48.633Z,9.762447
2023-05-17T04:18:48.609Z,9.762447
2023-05-17T04:19:48.536Z,9.762447
2023-05-17T04:20:48.511Z,9.762447
2023-05-17T04:21:49.497Z,9.762447
2023-05-17T04:22:48.480Z,9.762447
2023-05-17T04:23:48.569Z,9.762447
2023-05-17T04:24:48.494Z,9.762447
2023-05-17T04:25:51.220Z,9.762447
2023-05-17T04:26:48.480Z,9.762447
2023-05-17T04:27:48.433Z,9.762447
2023-05-17T04:28:48.432Z,9.762447
2023-05-17T04:29:48.427Z,9.762447
2023-05-17T04:30:48.403Z,9.762447
2023-05-17T04:31:48.396Z,9.762447
2023-05-17T04:32:48.462Z,9.762447
2023-05-17T04:33:48.378Z,9.762447
2023-05-17T04:34:48.374Z,9.762447
2023-05-17T04:35:48.351Z,9.762447
2023-05-17T04:36:48.340Z,9.762447
2023-05-17T04:37:48.335Z,9.762447
2023-05-17T04:38:48.336Z,9.762447
2023-05-17T04:39:48.391Z,9.762447
2023-05-17T04:40:48.310Z,9.762447
2023-05-17T04:41:48.297Z,9.762447
2023-05-17T04:42:48.285Z,9.762447
2023-05-17T04:43:48.298Z,9.762447
2023-05-17T04:44:48.287Z,9.762447
2023-05-17T04:45:48.265Z,9.762447
2023-05-17T04:46:48.327Z,9.762447
2023-05-17T04:47:48.272Z,9.762447
2023-05-17T04:48:48.368Z,9.762447
2023-05-17T04:49:48.221Z,9.762447
2023-05-17T04:50:48.211Z,9.762447
2023-05-17T04:51:48.215Z,9.762447
2023-05-17T04:52:48.198Z,9.762447
2023-05-17T04:53:48.193Z,9.762447
2023-05-17T04:54:48.170Z,9.762447
2023-05-17T04:55:48.172Z,9.762447
2023-05-17T04:56:48.147Z,9.762447
2023-05-17T04:57:48.169Z,9.762447
2023-05-17T04:58:48.134Z,9.762447
2023-05-17T04:59:48.120Z,9.762447
2023-05-17T05:00:48.118Z,9.762447
2023-05-17T05:01:48.098Z,9.762447
2023-05-17T05:02:48.166Z,9.762447
2023-05-17T05:03:48.246Z,9.762447
2023-05-17T05:04:48.108Z,9.762447
2023-05-17T05:05:48.064Z,9.762447
2023-05-17T05:06:48.077Z,9.762447
2023-05-17T05:07:48.052Z,9.762447
2023-05-17T05:08:48.028Z,9.762447
2023-05-17T05:09:48.033Z,9.762447
2023-05-17T05:10:48.016Z,9.762447
2023-05-17T05:11:48.169Z,9.762447
2023-05-17T05:12:48.043Z,9.762447
2023-05-17T05:13:48.040Z,9.762447
2023-05-17T05:14:47.988Z,9.762447
2023-05-17T05:15:48.010Z,9.762447
2023-05-17T05:16:48.012Z,9.762447
2023-05-17T05:17:48.115Z,9.762447
2023-05-17T05:18:48.120Z,9.762447
2023-05-17T05:19:47.964Z,9.762447
2023-05-17T05:20:47.963Z,9.762447
2023-05-17T05:21:47.967Z,9.762447
2023-05-17T05:22:47.917Z,9.762447
2023-05-17T05:23:47.908Z,9.762447
2023-05-17T05:24:47.893Z,9.762447
2023-05-17T05:25:47.907Z,9.762447
2023-05-17T05:26:47.860Z,9.762447
2023-05-17T05:27:47.931Z,9.762447
2023-05-17T05:28:47.860Z,9.762447
2023-05-17T05:29:47.846Z,9.762447
2023-05-17T05:30:47.855Z,9.762447
2023-05-17T05:31:47.827Z,9.762447
2023-05-17T05:32:47.871Z,9.762447
2023-05-17T05:33:47.921Z,9.762447
2023-05-17T05:34:47.809Z,9.762447
2023-05-17T05:35:47.790Z,9.762447
2023-05-17T05:36:47.789Z,9.762447
2023-05-17T05:37:47.759Z,9.762447
2023-05-17T05:38:47.741Z,9.762447
2023-05-17T05:39:47.751Z,9.762447
2023-05-17T05:40:47.726Z,9.762447
2023-05-17T05:41:47.713Z,9.762447
2023-05-17T05:42:47.706Z,9.762447
2023-05-17T05:43:47.841Z,9.762447
2023-05-17T05:44:47.698Z,9.762447
2023-05-17T05:45:47.681Z,9.762447
2023-05-17T05:46:47.650Z,9.762447
2023-05-17T05:47:47.703Z,9.762447
2023-05-17T05:48:47.702Z,9.762447
2023-05-17T05:49:47.635Z,9.762447
2023-05-17T05:50:47.619Z,9.762447
2023-05-17T05:51:47.611Z,9.762447
2023-05-17T05:52:47.586Z,9.762447
2023-05-17T05:53:47.609Z,9.762447
2023-05-17T05:54:47.571Z,9.762447
2023-05-17T05:55:47.567Z,9.762447
2023-05-17T05:56:47.569Z,9.762447
2023-05-17T05:57:47.547Z,9.762447
2023-05-17T05:58:47.553Z,9.762447
2023-05-17T05:59:47.594Z,9.762447
2023-05-17T06:00:47.518Z,9.762447
2023-05-17T06:01:47.497Z,9.762447
2023-05-17T06:02:47.534Z,9.762447
2023-05-17T06:03:47.497Z,9.762447
2023-05-17T06:04:47.473Z,9.762447
2023-05-17T06:05:47.524Z,9.762447
2023-05-17T06:06:47.579Z,9.762447
2023-05-17T06:07:47.447Z,9.762447
2023-05-17T06:08:47.438Z,9.762447
2023-05-17T06:09:47.412Z,9.762447
2023-05-17T06:10:47.412Z,9.762447
2023-05-17T06:11:47.397Z,9.762447
2023-05-17T06:12:47.395Z,9.762447
2023-05-17T06:13:47.385Z,9.762447
2023-05-17T06:14:47.374Z,9.762447
2023-05-17T06:15:47.433Z,9.762447
2023-05-17T06:16:47.362Z,9.762447
2023-05-17T06:17:47.422Z,9.762447
2023-05-17T06:18:48.755Z,9.762447
2023-05-17T06:19:47.388Z,9.762447
2023-05-17T06:20:47.292Z,9.762447
2023-05-17T06:21:47.302Z,9.762447
2023-05-17T06:22:47.295Z,9.762447
2023-05-17T06:23:47.273Z,9.762447
2023-05-17T06:24:47.262Z,9.762447
2023-05-17T06:25:47.254Z,9.762447
2023-05-17T06:26:47.244Z,9.762447
2023-05-17T06:27:47.231Z,9.762447
2023-05-17T06:28:47.227Z,9.762447
2023-05-17T06:29:47.204Z,9.762447
2023-05-17T06:30:47.224Z,9.762447
2023-05-17T06:31:47.282Z,9.762447
2023-05-17T06:32:47.248Z,9.762447
2023-05-17T06:33:47.215Z,9.762447
2023-05-17T06:34:47.162Z,9.762447
2023-05-17T06:35:56.216Z,9.762447
2023-05-17T06:36:49.147Z,9.762447
2023-05-17T06:37:47.123Z,9.762447
2023-05-17T06:38:47.110Z,9.762447
2023-05-17T06:39:55.583Z,9.762447
2023-05-17T06:40:49.090Z,9.762447
2023-05-17T06:41:47.095Z,9.762447
2023-05-17T06:42:47.081Z,9.762447
2023-05-17T06:43:47.062Z,9.762447
2023-05-17T06:44:47.066Z,9.762447
2023-05-17T06:45:47.061Z,9.762447
2023-05-17T06:46:47.052Z,9.762447
2023-05-17T06:47:47.179Z,9.762447
2023-05-17T06:48:50.780Z,9.762447
2023-05-17T06:49:48.167Z,9.762447
2023-05-17T06:50:47.025Z,9.762447
2023-05-17T06:51:46.991Z,9.762447
2023-05-17T06:52:46.980Z,9.762447
2023-05-17T06:53:46.978Z,9.762447
2023-05-17T06:54:46.958Z,9.762447
2023-05-17T06:55:46.998Z,9.762447
2023-05-17T06:56:46.971Z,9.762447
2023-05-17T06:57:46.925Z,9.762447
2023-05-17T06:58:46.907Z,9.762447
2023-05-17T06:59:46.901Z,9.762447
2023-05-17T07:00:46.922Z,9.762447
2023-05-17T07:01:46.877Z,9.762447
2023-05-17T07:02:47.734Z,9.762447
2023-05-17T07:03:47.097Z,9.762447
2023-05-17T07:04:46.925Z,9.762447
2023-05-17T07:05:46.846Z,9.762447
2023-05-17T07:06:46.837Z,9.762447
2023-05-17T07:07:46.834Z,9.762447
2023-05-17T07:08:46.809Z,9.762447
2023-05-17T07:09:46.818Z,9.762447
2023-05-17T07:10:46.792Z,9.762447
2023-05-17T07:11:46.785Z,9.762447
2023-05-17T07:12:46.790Z,9.762447
2023-05-17T07:13:46.951Z,9.762447
2023-05-17T07:14:46.897Z,9.762447
2023-05-17T07:15:46.743Z,9.762447
2023-05-17T07:16:46.733Z,9.762447
2023-05-17T07:17:46.809Z,9.762447
2023-05-17T07:18:46.819Z,9.762447
2023-05-17T07:19:46.909Z,9.762447
2023-05-17T07:20:46.695Z,9.762447
2023-05-17T07:21:46.714Z,9.762447
2023-05-17T07:22:46.693Z,9.762447
2023-05-17T07:23:46.681Z,9.762447
2023-05-17T07:24:46.729Z,9.762447
2023-05-17T07:25:46.696Z,9.762447
2023-05-17T07:26:46.636Z,9.762447
2023-05-17T07:27:46.674Z,9.762447
2023-05-17T07:28:46.629Z,9.762447
2023-05-17T07:29:46.617Z,9.762447
2023-05-17T07:30:46.662Z,9.762447
2023-05-17T07:31:46.617Z,9.762447
2023-05-17T08:32:58.889Z,9.763035
2023-05-17T08:33:58.738Z,9.762998
2023-05-17T08:34:58.735Z,9.763058
2023-05-17T08:35:58.686Z,9.763222
2023-05-17T08:36:58.682Z,9.763030
2023-05-17T08:37:58.696Z,9.763067
2023-05-17T08:38:58.636Z,9.762974
2023-05-17T08:39:58.738Z,9.763006
2023-05-17T08:40:58.673Z,9.762972
2023-05-17T08:41:58.604Z,9.763020
2023-05-17T08:42:58.591Z,9.763020
2023-05-17T08:43:58.668Z,9.763020
2023-05-17T08:44:58.571Z,9.763020
2023-05-17T08:45:58.631Z,9.763020
2023-05-17T08:46:58.566Z,9.763020
2023-05-17T08:47:58.674Z,9.763020
2023-05-17T08:48:58.584Z,9.763020
2023-05-17T08:49:58.539Z,9.763020
2023-05-17T08:50:58.522Z,9.763020
2023-05-17T08:51:58.559Z,9.763020
2023-05-17T08:52:58.588Z,9.763020
2023-05-17T08:53:59.496Z,9.763020
2023-05-17T08:54:58.474Z,9.763020
2023-05-17T08:55:58.452Z,9.763020
2023-05-17T08:56:58.452Z,9.762315
2023-05-17T08:57:58.480Z,9.762850
2023-05-17T08:58:58.461Z,9.762895
2023-05-17T08:59:58.431Z,9.762953
2023-05-17T09:00:58.421Z,9.762952
2023-05-17T09:01:58.409Z,9.762769
2023-05-17T09:02:58.499Z,9.762607
2023-05-17T09:03:58.389Z,9.762815
2023-05-17T09:04:58.557Z,9.762878
2023-05-17T09:05:58.507Z,9.763082
2023-05-17T09:06:58.347Z,9.762901
2023-05-17T09:07:58.323Z,9.762361
2023-05-17T09:08:58.486Z,9.762727
2023-05-17T09:09:58.292Z,9.762727
2023-05-17T09:10:58.329Z,9.762727
2023-05-17T09:11:58.293Z,9.762727
2023-05-17T09:12:58.280Z,9.762727
2023-05-17T09:13:58.265Z,9.762727
2023-05-17T09:14:58.260Z,9.762727
2023-05-17T09:15:58.255Z,9.762727
2023-05-17T09:16:58.302Z,9.762727
2023-05-17T09:18:01.815Z,9.762727
2023-05-17T09:18:58.320Z,9.762727
2023-05-17T09:19:58.364Z,9.762564
2023-05-17T09:20:58.200Z,9.762564
2023-05-17T09:21:58.209Z,9.762564
2023-05-17T09:22:58.174Z,9.762564
2023-05-17T09:24:06.476Z,9.762564
2023-05-17T09:25:00.198Z,9.762564
2023-05-17T09:25:58.158Z,9.763023
2023-05-17T09:26:58.174Z,9.762984
2023-05-17T09:27:58.117Z,9.762785
2023-05-17T09:28:59.151Z,9.762785
2023-05-17T09:29:58.103Z,9.762785
2023-05-17T09:30:58.109Z,9.762785
2023-05-17T09:31:58.102Z,9.762785
2023-05-17T09:32:58.086Z,9.763103
2023-05-17T09:33:58.124Z,9.763103
2023-05-17T09:34:58.072Z,9.763620
2023-05-17T09:35:58.076Z,9.763620
2023-05-17T09:36:58.035Z,9.763620
2023-05-17T09:37:58.031Z,9.763620
2023-05-17T09:38:58.039Z,9.762575
2023-05-17T09:39:57.992Z,9.762794
2023-05-17T09:40:58.037Z,9.762962
2023-05-17T09:41:57.989Z,9.762773
2023-05-17T09:42:57.977Z,9.762938
2023-05-17T09:43:57.985Z,9.762858
2023-05-17T09:44:57.960Z,9.762851
2023-05-17T09:45:57.963Z,9.762861
2023-05-17T09:46:57.924Z,9.762995
2023-05-17T09:47:57.997Z,9.762860
2023-05-17T09:48:57.970Z,9.762831
2023-05-17T09:49:57.920Z,9.763087
2023-05-17T09:50:57.913Z,9.762970
2023-05-17T09:51:57.872Z,9.762930
2023-05-17T09:52:57.893Z,9.762922
2023-05-17T09:53:57.853Z,9.762783
2023-05-17T09:54:57.879Z,9.762913
2023-05-17T09:55:57.858Z,9.762949
2023-05-17T09:56:57.827Z,9.762739
2023-05-17T09:57:57.833Z,9.762880
2023-05-17T09:58:57.877Z,9.762880
2023-05-17T09:59:57.853Z,9.762880
2023-05-17T10:00:57.816Z,9.762880
2023-05-17T10:01:57.797Z,9.762880
2023-05-17T10:02:57.850Z,9.762880
2023-05-17T10:03:57.805Z,9.762880
2023-05-17T10:04:57.823Z,9.762880
2023-05-17T10:05:57.739Z,9.762880
2023-05-17T10:06:57.724Z,9.762880
2023-05-17T10:07:57.717Z,9.762880
2023-05-17T10:08:57.734Z,9.762880
2023-05-17T10:09:57.727Z,9.762880
2023-05-17T10:10:57.701Z,9.762880
2023-05-17T10:11:57.699Z,9.762880
2023-05-17T10:12:57.709Z,9.762880
2023-05-17T10:13:57.697Z,9.762880
2023-05-17T10:14:57.823Z,9.762880
2023-05-17T10:15:57.664Z,9.762880
2023-05-17T10:16:57.658Z,9.762880
2023-05-17T10:17:57.752Z,9.762880
2023-05-17T10:18:57.751Z,9.762880
2023-05-17T10:19:57.755Z,9.762880
2023-05-17T10:20:57.619Z,9.762880
2023-05-17T10:22:02.300Z,9.762880
2023-05-17T10:22:58.817Z,9.762880
2023-05-17T10:23:58.579Z,9.762880
2023-05-17T10:24:57.565Z,9.762880
2023-05-17T10:25:57.557Z,9.762880
2023-05-17T10:26:57.552Z,9.762880
2023-05-17T10:27:57.548Z,9.762880
2023-05-17T10:28:57.551Z,9.762880
2023-05-17T10:29:57.509Z,9.762880
2023-05-17T10:30:57.511Z,9.762880
2023-05-17T10:31:57.513Z,9.762880
2023-05-17T10:33:00.852Z,9.762880
2023-05-17T10:33:57.582Z,9.762880
2023-05-17T10:35:10.519Z,9.762880
2023-05-17T10:35:59.482Z,9.762880
2023-05-17T10:36:57.477Z,9.762880
2023-05-17T10:37:57.470Z,9.762880
2023-05-17T10:38:57.431Z,9.762880
2023-05-17T10:39:57.433Z,9.762880
2023-05-17T10:40:57.408Z,9.762880
2023-05-17T10:42:07.141Z,9.762880
2023-05-17T10:42:59.406Z,9.762880
2023-05-17T10:43:57.382Z,9.762880
2023-05-17T10:44:57.362Z,9.762880
2023-05-17T10:45:57.349Z,9.762880
2023-05-17T10:46:57.385Z,9.762880
2023-05-17T10:47:59.032Z,9.762880
2023-05-17T10:48:57.467Z,9.762880
2023-05-17T10:49:57.322Z,9.762880
2023-05-17T10:51:01.747Z,9.762880
2023-05-17T10:51:58.330Z,9.762880
2023-05-17T10:52:57.294Z,9.762880
2023-05-17T10:53:57.276Z,9.762020
2023-05-17T10:54:57.287Z,9.762058
2023-05-17T10:55:57.254Z,9.762014
2023-05-17T10:56:57.259Z,9.762245
2023-05-17T10:57:57.230Z,9.762105
2023-05-17T10:58:57.243Z,9.762059
2023-05-17T10:59:57.220Z,9.761988
2023-05-17T11:00:57.211Z,9.762190
2023-05-17T11:01:57.196Z,9.762103
2023-05-17T11:02:57.226Z,9.762105
2023-05-17T11:03:57.203Z,9.762288
2023-05-17T11:04:57.264Z,9.762022
2023-05-17T11:05:57.258Z,9.762041
2023-05-17T11:06:57.349Z,9.762095
2023-05-17T11:07:57.159Z,9.762247
2023-05-17T11:08:57.149Z,9.762243
2023-05-17T11:09:58.151Z,9.762218
2023-05-17T11:10:57.123Z,9.761968
2023-05-17T11:11:57.135Z,9.761971
2023-05-17T11:12:57.087Z,9.762060
2023-05-17T11:13:57.133Z,9.762273
2023-05-17T11:14:57.112Z,9.762370
2023-05-17T11:15:57.129Z,9.762416
2023-05-17T11:16:58.246Z,9.762336
2023-05-17T11:17:57.198Z,9.762344
2023-05-17T11:18:57.249Z,9.762691
2023-05-17T11:19:57.070Z,9.762768
2023-05-17T11:20:57.154Z,9.762770
2023-05-17T11:21:56.997Z,9.762870
2023-05-17T11:22:57.006Z,9.762886
2023-05-17T11:23:56.993Z,9.762610
2023-05-17T11:24:56.975Z,9.762774
2023-05-17T11:26:00.417Z,9.763006
2023-05-17T11:26:57.949Z,9.762896
2023-05-17T11:27:56.957Z,9.762833
2023-05-17T11:28:56.957Z,9.762841
2023-05-17T11:29:56.944Z,9.762727
2023-05-17T11:30:56.945Z,9.762157
2023-05-17T11:31:56.920Z,9.762536
2023-05-17T11:32:56.932Z,9.762554
2023-05-17T11:33:56.907Z,9.762796
2023-05-17T11:34:56.887Z,9.762592
2023-05-17T11:35:56.873Z,9.762663
2023-05-17T11:36:56.853Z,9.762646
2023-05-17T11:37:56.838Z,9.762794
2023-05-17T11:39:07.441Z,9.762648
2023-05-17T11:39:58.858Z,9.763086
2023-05-17T11:40:56.811Z,9.763156
2023-05-17T11:41:56.808Z,9.762918
2023-05-17T11:42:56.822Z,9.762987
2023-05-17T11:43:56.806Z,9.762546
2023-05-17T11:44:56.768Z,9.762922
2023-05-17T11:45:56.776Z,9.762788
2023-05-17T11:46:56.800Z,9.762601
2023-05-17T11:47:56.830Z,9.762607
2023-05-17T11:48:56.942Z,9.762575
2023-05-17T11:49:56.804Z,9.762486
2023-05-17T11:50:56.733Z,9.762708
2023-05-17T11:51:56.698Z,9.762784
2023-05-17T11:52:56.685Z,9.762841
2023-05-17T11:53:56.723Z,9.762877
2023-05-17T11:54:56.748Z,9.762800
2023-05-17T11:55:56.663Z,9.762860
2023-05-17T11:56:56.660Z,9.762767
2023-05-17T11:57:56.645Z,9.762858
2023-05-17T11:58:56.650Z,9.762754
2023-05-17T11:59:56.637Z,9.762737
2023-05-17T12:00:56.663Z,9.762671
2023-05-17T12:01:56.641Z,9.762671
2023-05-17T12:02:56.657Z,9.762617
2023-05-17T12:03:56.603Z,9.762617
2023-05-17T12:04:56.722Z,9.762617
2023-05-17T12:05:56.588Z,9.763007
2023-05-17T12:06:56.621Z,9.762751
2023-05-17T12:07:56.571Z,9.762661
2023-05-17T12:08:56.552Z,9.762559
2023-05-17T12:09:56.553Z,9.762641
2023-05-17T12:10:56.516Z,9.763022
2023-05-17T12:11:56.527Z,9.763022
2023-05-17T12:12:56.500Z,9.763022
2023-05-17T12:13:56.498Z,9.763022
2023-05-17T12:14:56.508Z,9.763022
2023-05-17T12:15:56.463Z,9.763022
2023-05-17T12:16:56.557Z,9.762506
2023-05-17T12:17:56.587Z,9.762332
2023-05-17T12:18:56.628Z,9.763264
2023-05-17T12:19:56.536Z,9.762894
2023-05-17T12:20:56.440Z,9.762921
2023-05-17T12:21:56.454Z,9.762921
2023-05-17T12:22:56.491Z,9.762921
2023-05-17T12:23:56.448Z,9.762921
2023-05-17T12:24:56.433Z,9.762921
2023-05-17T12:25:56.415Z,9.762921
2023-05-17T12:26:56.384Z,9.762921
2023-05-17T12:27:56.370Z,9.762921
2023-05-17T12:28:56.398Z,9.762921
2023-05-17T12:29:56.403Z,9.762921
2023-05-17T12:30:56.355Z,9.762921
2023-05-17T12:31:56.321Z,9.762921
2023-05-17T12:32:56.380Z,9.762921
2023-05-17T12:33:56.351Z,9.763212
2023-05-17T12:34:56.285Z,9.762958
2023-05-17T12:35:56.278Z,9.763257
2023-05-17T12:36:56.277Z,9.761764
2023-05-17T12:37:56.272Z,9.762395
2023-05-17T12:38:56.269Z,9.762903
2023-05-17T12:39:56.248Z,9.762965
2023-05-17T12:40:56.263Z,9.762395
2023-05-17T12:41:56.216Z,9.762869
2023-05-17T12:42:56.246Z,9.762999
2023-05-17T12:44:06.299Z,9.763038
2023-05-17T12:44:58.205Z,9.762702
2023-05-17T12:45:56.212Z,9.762794
2023-05-17T12:46:56.348Z,9.763024
2023-05-17T12:47:56.233Z,9.762856
2023-05-17T12:48:56.236Z,9.762856
2023-05-17T12:49:56.173Z,9.762879
2023-05-17T12:50:56.116Z,9.762972
2023-05-17T12:51:56.121Z,9.763136
2023-05-17T12:52:56.155Z,9.762945
2023-05-17T12:53:56.119Z,9.762669
2023-05-17T12:54:56.117Z,9.763166
2023-05-17T12:55:56.080Z,9.762622
2023-05-17T12:56:56.110Z,9.762569
2023-05-17T12:57:56.076Z,9.762769
2023-05-17T12:58:56.051Z,9.762857
2023-05-17T12:59:56.075Z,9.762893
2023-05-17T13:00:56.029Z,9.762902
2023-05-17T13:01:56.023Z,9.762439
2023-05-17T13:02:56.157Z,9.762702
2023-05-17T13:03:56.090Z,9.762697
2023-05-17T13:04:56.109Z,9.762819
2023-05-17T13:05:55.982Z,9.762703